Time;durP1;ratioP1;P1;durP2;ratioP2;P2;SDS_P1;SDS_P2;PMS_P1;PMS_P2;Temp;Humidity;BMP_temperature;BMP_pressure;BME280_temperature;BME280_humidity;BME280_pressure;Samples;Min_cycle;Max_cycle;Signal;HPM_P1;HPM_P2
2022/01/13 00:01:09;;;;;;;27.47;12.67;;;4.60;86.70;;;;;;5044260;28;20729;-87
2022/01/13 00:03:35;;;;;;;38.20;13.05;;;5.00;86.50;;;;;;5046570;28;20182;-85
2022/01/13 00:06:01;;;;;;;25.83;11.60;;;5.00;85.40;;;;;;5053456;28;20211;-85
2022/01/13 00:08:26;;;;;;;33.20;13.30;;;5.10;85.00;;;;;;5053826;28;20300;-85
2022/01/13 00:10:52;;;;;;;27.03;12.00;;;4.80;84.80;;;;;;5063150;28;20257;-88
2022/01/13 00:13:24;;;;;;;28.40;13.43;;;4.60;85.80;;;;;;5047020;28;20185;-85
2022/01/13 00:16:11;;;;;;;32.42;11.85;;;4.50;85.60;;;;;;5041530;28;20666;-87
2022/01/13 00:18:48;;;;;;;28.40;12.73;;;4.90;85.60;;;;;;5038538;28;20563;-86
2022/01/13 00:21:29;;;;;;;25.77;12.15;;;4.90;85.20;;;;;;5042110;28;20207;-87
2022/01/13 00:23:59;;;;;;;29.88;11.95;;;4.80;85.20;;;;;;5056626;28;20195;-86
2022/01/13 00:26:26;;;;;;;18.98;10.80;;;4.90;85.40;;;;;;5057239;28;20208;-87
2022/01/13 00:28:53;;;;;;;25.10;11.93;;;5.00;85.10;;;;;;5056951;28;20208;-85
2022/01/13 00:31:31;;;;;;;25.05;10.80;;;5.00;84.70;;;;;;5057028;28;20177;-85
2022/01/13 00:34:00;;;;;;;24.63;11.30;;;4.80;84.30;;;;;;5056468;28;20200;-86
2022/01/13 00:36:31;;;;;;;26.00;10.98;;;4.60;84.80;;;;;;5056837;28;20288;-86
2022/01/13 00:38:57;;;;;;;30.00;11.40;;;4.60;85.30;;;;;;5056295;28;20187;-85
2022/01/13 00:41:27;;;;;;;26.70;11.73;;;4.80;85.70;;;;;;5051461;28;20730;-86
2022/01/13 00:43:54;;;;;;;38.00;11.90;;;5.00;85.80;;;;;;5035388;28;20186;-86
2022/01/13 00:46:22;;;;;;;31.25;11.00;;;5.00;85.70;;;;;;5036217;28;20225;-86
2022/01/13 00:48:49;;;;;;;25.75;12.32;;;5.00;85.60;;;;;;5036192;28;20293;-86
2022/01/13 00:51:15;;;;;;;35.50;13.35;;;5.00;85.20;;;;;;5038044;28;20227;-86
2022/01/13 00:53:42;;;;;;;32.58;12.52;;;4.80;85.00;;;;;;5036297;28;20178;-87
2022/01/13 00:56:07;;;;;;;33.10;12.48;;;4.50;85.20;;;;;;5036587;28;20197;-86
2022/01/13 00:58:35;;;;;;;30.20;12.90;;;4.30;85.90;;;;;;5040921;28;20186;-86
2022/01/13 01:01:03;;;;;;;18.30;10.18;;;4.20;86.30;;;;;;5039714;28;20412;-86
2022/01/13 01:03:35;;;;;;;27.17;11.30;;;4.10;86.80;;;;;;5038695;28;20196;-86
2022/01/13 01:06:06;;;;;;;24.48;11.18;;;4.00;86.90;;;;;;5038658;28;20225;-85
2022/01/13 01:08:33;;;;;;;32.63;12.35;;;3.90;87.30;;;;;;5039727;28;20236;-85
2022/01/13 01:11:02;;;;;;;26.70;11.70;;;4.00;87.50;;;;;;5038630;28;20693;-86
2022/01/13 01:13:30;;;;;;;29.13;12.85;;;4.30;87.70;;;;;;5037545;28;20182;-86
2022/01/13 01:15:59;;;;;;;27.70;12.90;;;4.40;87.50;;;;;;5038647;28;20186;-86
2022/01/13 01:18:38;;;;;;;31.35;11.65;;;4.30;87.50;;;;;;5038406;28;20285;-86
2022/01/13 01:28:51;;;;;;;27.88;12.63;;;4.20;87.70;;;;;;5045309;28;20210;-86
2022/01/13 01:31:22;;;;;;;38.15;13.57;;;4.20;88.40;;;;;;5043586;28;20287;-83
2022/01/13 01:34:00;;;;;;;41.03;14.70;;;4.40;87.80;;;;;;5040480;28;20265;-86
2022/01/13 01:36:26;;;;;;;29.65;13.48;;;4.80;87.40;;;;;;5036454;28;20197;-86
2022/01/13 01:38:54;;;;;;;32.67;13.80;;;4.80;86.60;;;;;;5038698;28;20301;-86
2022/01/13 01:41:20;;;;;;;29.17;13.18;;;4.60;86.50;;;;;;5036371;28;20542;-86
2022/01/13 01:43:47;;;;;;;29.13;12.57;;;4.60;86.60;;;;;;5037071;28;20181;-86
2022/01/13 01:46:13;;;;;;;32.05;14.15;;;4.40;86.80;;;;;;5037532;28;20288;-86
2022/01/13 01:48:38;;;;;;;32.43;13.90;;;4.40;87.00;;;;;;5058352;28;20194;-86
2022/01/13 01:51:04;;;;;;;41.43;14.20;;;4.40;87.20;;;;;;5037214;28;20231;-86
2022/01/13 01:53:31;;;;;;;32.80;14.20;;;4.80;87.20;;;;;;5046749;28;20178;-84
2022/01/13 01:55:57;;;;;;;35.05;14.43;;;4.90;86.50;;;;;;5067740;28;20201;-87
2022/01/13 01:58:26;;;;;;;33.92;14.70;;;5.00;86.10;;;;;;5060604;28;20185;-87
2022/01/13 02:00:56;;;;;;;33.03;14.32;;;4.80;86.10;;;;;;5072865;28;20201;-87
2022/01/13 02:03:26;;;;;;;33.83;12.25;;;4.80;86.30;;;;;;5061080;28;20173;-86
2022/01/13 02:05:53;;;;;;;34.95;14.93;;;5.10;86.20;;;;;;5056153;28;20201;-87
2022/01/13 02:08:18;;;;;;;38.63;13.23;;;4.90;85.80;;;;;;5051544;28;20182;-86
2022/01/13 02:10:45;;;;;;;38.27;14.20;;;5.00;86.70;;;;;;5041773;28;20177;-85
2022/01/13 02:13:13;;;;;;;34.75;14.63;;;5.20;85.70;;;;;;5035397;28;20178;-87
2022/01/13 02:18:24;;;;;;;34.13;15.88;;;4.80;84.80;;;;;;5037564;28;20169;-87
2022/01/13 02:20:54;;;;;;;34.83;16.17;;;4.80;85.00;;;;;;5035782;28;20186;-86
2022/01/13 02:23:37;;;;;;;39.33;15.05;;;4.70;85.40;;;;;;5044480;28;20488;-87
2022/01/13 02:26:06;;;;;;;39.10;15.95;;;4.60;85.90;;;;;;5055399;28;20201;-86
2022/01/13 02:28:34;;;;;;;41.25;14.43;;;4.90;86.20;;;;;;5055533;28;20220;-85
2022/01/13 02:31:00;;;;;;;40.78;15.45;;;5.10;85.80;;;;;;5059806;28;20184;-84
2022/01/13 02:33:26;;;;;;;37.70;14.87;;;5.20;85.20;;;;;;5056111;28;20205;-86
2022/01/13 02:35:52;;;;;;;60.77;18.43;;;5.10;84.60;;;;;;5055301;28;20519;-85
2022/01/13 02:38:17;;;;;;;37.23;15.50;;;5.00;84.50;;;;;;5050536;28;20428;-85
2022/01/13 02:40:43;;;;;;;41.73;15.50;;;5.10;84.80;;;;;;5056327;28;20519;-85
2022/01/13 02:43:09;;;;;;;36.73;14.67;;;5.20;84.80;;;;;;5054898;28;20211;-86
2022/01/13 02:45:38;;;;;;;41.37;15.90;;;5.00;84.80;;;;;;5054239;28;20416;-86
2022/01/13 02:50:35;;;;;;;31.77;14.77;;;5.10;84.80;;;;;;5060115;28;20168;-86
2022/01/13 02:53:03;;;;;;;47.83;16.77;;;5.00;84.50;;;;;;5048614;28;20178;-86
2022/01/13 02:55:28;;;;;;;35.65;14.90;;;4.70;84.80;;;;;;5042526;28;20197;-86
2022/01/13 02:57:54;;;;;;;39.50;14.90;;;4.50;85.10;;;;;;5043704;28;20662;-86
2022/01/13 03:00:20;;;;;;;28.77;13.93;;;4.60;85.40;;;;;;5042402;28;20474;-86
2022/01/13 03:02:47;;;;;;;46.13;14.57;;;5.00;85.40;;;;;;5040374;28;20657;-87
2022/01/13 03:05:16;;;;;;;37.25;15.57;;;5.20;84.70;;;;;;5035527;28;20185;-86
2022/01/13 03:07:42;;;;;;;31.85;13.30;;;5.00;83.70;;;;;;5036093;28;20202;-86
2022/01/13 03:10:09;;;;;;;36.47;16.00;;;4.70;83.40;;;;;;5036153;28;20716;-86
2022/01/13 03:12:38;;;;;;;44.65;16.65;;;4.70;83.90;;;;;;5038046;28;20197;-87
2022/01/13 03:15:04;;;;;;;44.78;14.55;;;4.80;84.10;;;;;;5037765;28;20267;-85
2022/01/13 03:17:30;;;;;;;36.25;14.48;;;4.50;84.40;;;;;;5035154;28;20198;-85
2022/01/13 03:19:56;;;;;;;47.60;15.83;;;4.40;84.80;;;;;;5034969;28;20178;-87
2022/01/13 03:22:22;;;;;;;37.67;15.83;;;4.20;85.30;;;;;;5035492;28;20233;-86
2022/01/13 03:24:47;;;;;;;48.40;18.00;;;4.10;85.80;;;;;;5043211;28;20470;-86
2022/01/13 03:27:19;;;;;;;48.37;17.10;;;4.40;86.10;;;;;;5043265;28;20217;-86
2022/01/13 03:29:46;;;;;;;41.45;15.73;;;4.30;86.20;;;;;;5037094;28;20202;-86
2022/01/13 03:32:12;;;;;;;45.83;17.70;;;4.20;86.30;;;;;;5035978;28;20201;-87
2022/01/13 03:34:38;;;;;;;45.72;17.38;;;4.60;87.10;;;;;;5033688;28;20232;-86
2022/01/13 03:37:04;;;;;;;45.63;15.30;;;4.80;85.60;;;;;;5042623;28;20272;-86
2022/01/13 03:39:29;;;;;;;46.03;17.50;;;4.70;85.20;;;;;;5056581;28;20915;-86
2022/01/13 03:41:55;;;;;;;49.13;17.57;;;4.60;85.20;;;;;;5059931;28;20244;-85
2022/01/13 03:44:29;;;;;;;40.23;16.23;;;4.80;84.50;;;;;;5062288;28;20622;-87
2022/01/13 03:47:02;;;;;;;44.75;15.43;;;4.80;84.00;;;;;;5053484;28;20204;-86
2022/01/13 03:49:27;;;;;;;42.88;16.98;;;4.90;83.70;;;;;;5053227;28;20553;-85
2022/01/13 03:51:59;;;;;;;34.73;14.17;;;4.90;83.40;;;;;;5048527;28;20197;-86
2022/01/13 03:54:33;;;;;;;47.35;17.15;;;4.60;83.60;;;;;;5043219;28;20435;-87
2022/01/13 03:57:14;;;;;;;37.67;14.15;;;4.50;84.20;;;;;;5054557;28;20216;-85
2022/01/13 04:00:40;;;;;;;37.00;14.00;;;4.60;84.10;;;;;;5039711;28;20174;-86
2022/01/13 04:03:06;;;;;;;38.03;13.80;;;4.20;84.00;;;;;;5015855;28;20166;-86
2022/01/13 04:05:32;;;;;;;38.20;14.30;;;4.20;84.90;;;;;;5030728;28;20209;-86
2022/01/13 04:07:58;;;;;;;40.10;14.13;;;4.30;85.10;;;;;;5057124;28;20430;-84
2022/01/13 04:11:05;;;;;;;31.80;13.80;;;4.50;85.20;;;;;;5062344;28;20284;-86
2022/01/13 04:16:10;;;;;;;35.85;14.25;;;4.40;85.30;;;;;;5054563;28;20288;-87
2022/01/13 04:18:36;;;;;;;52.42;16.67;;;4.40;85.50;;;;;;5052865;28;20177;-87
2022/01/13 04:21:02;;;;;;;44.67;16.83;;;4.40;85.70;;;;;;5054505;28;20187;-87
2022/01/13 04:23:29;;;;;;;37.63;14.37;;;4.50;85.90;;;;;;5055413;28;20181;-87
2022/01/13 04:25:55;;;;;;;33.78;12.77;;;4.40;85.90;;;;;;5059633;28;20514;-85
2022/01/13 04:28:27;;;;;;;37.23;13.23;;;4.60;86.00;;;;;;5060372;28;20209;-87
2022/01/13 04:31:00;;;;;;;35.63;14.38;;;4.40;84.30;;;;;;5057417;28;20408;-87
2022/01/13 04:33:30;;;;;;;37.63;13.13;;;4.10;84.00;;;;;;5055187;28;20188;-87
2022/01/13 04:35:56;;;;;;;39.92;11.95;;;3.70;84.60;;;;;;5053119;28;20271;-86
2022/01/13 04:38:22;;;;;;;35.90;12.50;;;3.60;85.40;;;;;;5032595;28;20258;-86
2022/01/13 04:40:54;;;;;;;35.93;13.83;;;3.60;85.90;;;;;;5033246;28;20536;-86
2022/01/13 04:43:21;;;;;;;36.25;13.68;;;3.50;86.30;;;;;;5032371;28;20421;-86
2022/01/13 04:45:50;;;;;;;31.27;12.60;;;3.70;86.90;;;;;;5032379;28;20162;-86
2022/01/13 04:48:16;;;;;;;46.60;15.23;;;3.90;87.10;;;;;;5033724;28;20524;-86
2022/01/13 04:50:43;;;;;;;38.53;14.07;;;3.90;87.10;;;;;;5032140;28;20265;-86
2022/01/13 04:53:09;;;;;;;32.95;13.93;;;4.10;87.30;;;;;;5051442;28;20169;-86
2022/01/13 04:55:36;;;;;;;46.78;16.77;;;4.30;87.20;;;;;;5053640;28;20569;-86
2022/01/13 04:58:03;;;;;;;36.22;13.50;;;4.50;86.70;;;;;;5052462;28;20181;-86
2022/01/13 05:00:30;;;;;;;38.40;14.82;;;4.50;86.10;;;;;;5052468;28;20196;-86
2022/01/13 05:02:56;;;;;;;36.28;15.10;;;4.60;85.70;;;;;;5052209;28;20635;-86
2022/01/13 05:05:22;;;;;;;44.42;15.95;;;4.60;85.30;;;;;;5052445;28;20208;-86
2022/01/13 05:07:49;;;;;;;38.50;15.25;;;4.40;85.10;;;;;;5052167;28;20213;-86
2022/01/13 05:10:15;;;;;;;39.50;15.85;;;4.30;85.30;;;;;;5052239;28;20204;-87
2022/01/13 05:12:45;;;;;;;49.50;14.00;;;4.20;85.20;;;;;;5050847;28;20186;-86
2022/01/13 05:15:25;;;;;;;37.13;14.32;;;4.10;85.40;;;;;;5047359;28;20416;-87
2022/01/13 05:20:37;;;;;;;37.25;14.65;;;3.90;86.00;;;;;;5033837;28;20174;-87
2022/01/13 05:23:05;;;;;;;46.92;17.95;;;3.70;86.40;;;;;;5051212;28;20177;-87
2022/01/13 05:25:31;;;;;;;45.15;16.05;;;3.60;87.10;;;;;;5051754;28;20178;-84
2022/01/13 05:27:57;;;;;;;67.70;15.20;;;3.50;87.60;;;;;;5052134;28;20213;-87
2022/01/13 05:30:23;;;;;;;38.60;14.70;;;3.60;88.20;;;;;;5044492;28;20197;-84
2022/01/13 05:32:49;;;;;;;48.90;16.03;;;3.30;88.50;;;;;;5032179;28;20174;-86
2022/01/13 05:35:17;;;;;;;51.03;18.10;;;3.20;89.00;;;;;;5032309;28;20185;-85
2022/01/13 05:37:44;;;;;;;34.67;16.48;;;3.20;89.40;;;;;;5037473;28;20432;-84
2022/01/13 05:40:12;;;;;;;54.78;15.18;;;3.20;89.80;;;;;;5048237;28;20615;-86
2022/01/13 05:42:39;;;;;;;45.63;16.73;;;3.30;90.00;;;;;;5034003;28;20257;-86
2022/01/13 05:45:07;;;;;;;46.30;16.65;;;3.60;90.00;;;;;;5038814;28;20225;-86
2022/01/13 05:47:33;;;;;;;57.95;19.42;;;3.50;89.80;;;;;;5053216;28;20193;-86
2022/01/13 05:49:58;;;;;;;49.23;17.10;;;3.30;89.50;;;;;;5072921;28;20220;-87
2022/01/13 05:52:24;;;;;;;49.07;17.83;;;3.20;89.70;;;;;;5074345;28;20197;-82
2022/01/13 05:54:49;;;;;;;46.87;18.23;;;3.50;89.90;;;;;;5066329;28;20201;-88
2022/01/13 05:57:15;;;;;;;57.87;17.27;;;3.70;89.80;;;;;;5061423;28;20837;-86
2022/01/13 05:59:41;;;;;;;62.27;19.17;;;3.50;89.30;;;;;;5060859;28;20185;-86
2022/01/13 06:02:07;;;;;;;41.00;15.07;;;3.40;89.20;;;;;;5059559;28;20295;-86
2022/01/13 06:04:33;;;;;;;45.95;16.45;;;3.20;89.30;;;;;;5057426;28;20221;-86
2022/01/13 06:06:59;;;;;;;59.95;19.33;;;3.40;89.50;;;;;;5043374;28;20201;-86
2022/01/13 06:09:24;;;;;;;49.30;17.30;;;3.30;89.40;;;;;;5046344;28;20202;-85
2022/01/13 06:12:02;;;;;;;57.47;17.00;;;3.20;89.30;;;;;;5036829;28;20184;-86
2022/01/13 06:14:28;;;;;;;50.53;14.30;;;3.50;89.50;;;;;;5035741;28;20414;-83
2022/01/13 06:16:54;;;;;;;46.93;16.57;;;3.30;89.10;;;;;;5036968;28;20217;-83
2022/01/13 06:19:20;;;;;;;43.30;15.63;;;3.10;89.10;;;;;;5036175;28;20417;-83
2022/01/13 06:21:46;;;;;;;66.03;19.93;;;3.10;89.50;;;;;;5037095;28;20285;-83
2022/01/13 06:24:11;;;;;;;47.65;15.82;;;3.00;89.70;;;;;;5036848;28;20421;-85
2022/01/13 06:26:37;;;;;;;55.27;14.97;;;3.00;90.10;;;;;;5037857;28;20221;-85
2022/01/13 06:29:03;;;;;;;51.40;17.87;;;3.00;90.30;;;;;;5038264;28;20197;-84
2022/01/13 06:31:29;;;;;;;53.00;16.85;;;3.20;90.60;;;;;;5038784;28;20500;-85
2022/01/13 06:33:55;;;;;;;52.17;19.15;;;3.40;90.50;;;;;;5045195;28;20665;-85
2022/01/13 06:36:21;;;;;;;48.10;17.33;;;3.60;90.50;;;;;;5058278;28;20200;-85
2022/01/13 06:38:48;;;;;;;50.93;18.80;;;3.40;89.90;;;;;;5057242;28;20173;-85
2022/01/13 06:41:18;;;;;;;54.58;17.95;;;3.40;89.90;;;;;;5057941;28;20420;-85
2022/01/13 06:43:44;;;;;;;52.47;16.45;;;3.40;90.10;;;;;;5059860;28;20178;-85
2022/01/13 06:46:17;;;;;;;50.70;16.67;;;3.50;90.10;;;;;;5062758;28;20253;-83
2022/01/13 06:48:45;;;;;;;51.60;18.17;;;3.70;90.10;;;;;;5058933;28;20228;-85
2022/01/13 06:51:11;;;;;;;58.60;19.20;;;3.70;90.00;;;;;;5046597;28;20228;-85
2022/01/13 06:53:36;;;;;;;48.63;16.97;;;3.80;89.90;;;;;;5046687;28;20595;-85
2022/01/13 06:56:02;;;;;;;52.07;17.80;;;4.00;89.50;;;;;;5036948;28;20194;-85
2022/01/13 06:58:28;;;;;;;56.80;19.48;;;3.80;88.60;;;;;;5037800;28;20551;-85
2022/01/13 07:00:54;;;;;;;49.77;18.60;;;4.00;88.40;;;;;;5036632;28;20184;-85
2022/01/13 07:03:20;;;;;;;55.60;19.97;;;4.00;88.20;;;;;;5038344;28;20178;-84
2022/01/13 07:05:46;;;;;;;54.00;16.80;;;3.90;88.20;;;;;;5035876;28;20248;-84
2022/01/13 07:08:13;;;;;;;56.55;18.30;;;4.00;88.20;;;;;;5037433;28;20171;-84
2022/01/13 07:10:39;;;;;;;48.67;17.70;;;4.00;88.10;;;;;;5037978;28;20181;-85
2022/01/13 07:13:05;;;;;;;47.40;18.60;;;4.10;88.10;;;;;;5038699;28;20256;-87
2022/01/13 07:15:31;;;;;;;67.23;19.17;;;4.20;87.90;;;;;;5035586;28;20197;-87
2022/01/13 07:17:57;;;;;;;58.97;18.95;;;4.50;87.40;;;;;;5036224;28;20440;-87
2022/01/13 07:20:25;;;;;;;62.83;17.85;;;4.40;86.10;;;;;;5036772;28;20208;-87
2022/01/13 07:22:51;;;;;;;58.20;18.63;;;4.10;85.80;;;;;;5038862;28;20181;-87
2022/01/13 07:25:17;;;;;;;49.55;18.90;;;4.30;86.10;;;;;;5036124;28;20653;-87
2022/01/13 07:27:43;;;;;;;58.70;19.30;;;4.30;86.00;;;;;;5036206;28;20217;-88
2022/01/13 07:30:10;;;;;;;58.90;18.07;;;4.40;86.00;;;;;;5041526;28;20460;-87
2022/01/13 07:32:37;;;;;;;49.35;19.13;;;4.40;85.70;;;;;;5051768;28;20181;-87
2022/01/13 07:35:03;;;;;;;51.22;19.63;;;4.40;85.60;;;;;;5051504;28;20251;-87
2022/01/13 07:37:29;;;;;;;44.75;15.82;;;4.50;85.80;;;;;;5036956;28;20198;-86
2022/01/13 07:39:54;;;;;;;41.93;18.07;;;4.40;85.70;;;;;;5037087;28;20206;-87
2022/01/13 07:42:23;;;;;;;51.70;16.57;;;4.20;85.80;;;;;;5036628;28;20197;-87
2022/01/13 07:44:48;;;;;;;49.63;16.05;;;4.30;86.20;;;;;;5037972;28;20170;-88
2022/01/13 07:47:14;;;;;;;50.33;17.77;;;4.60;86.00;;;;;;5054755;28;20178;-88
2022/01/13 07:49:40;;;;;;;66.00;20.63;;;4.60;85.70;;;;;;5037574;28;20712;-87
2022/01/13 07:52:05;;;;;;;43.57;19.23;;;4.70;85.40;;;;;;5039415;28;20195;-87
2022/01/13 07:54:32;;;;;;;51.93;17.10;;;4.40;85.20;;;;;;5036139;28;20268;-86
2022/01/13 07:56:58;;;;;;;49.28;15.63;;;4.20;85.30;;;;;;5032722;28;20440;-87
2022/01/13 07:59:31;;;;;;;44.40;16.50;;;4.00;85.50;;;;;;5033372;28;20182;-87
2022/01/13 08:02:00;;;;;;;39.42;15.55;;;4.10;85.80;;;;;;5032866;28;20182;-87
2022/01/13 08:04:26;;;;;;;52.50;16.83;;;4.10;86.00;;;;;;5036289;28;20182;-87
2022/01/13 08:06:52;;;;;;;49.30;18.20;;;4.30;86.20;;;;;;5043153;28;20208;-87
2022/01/13 08:09:17;;;;;;;48.37;15.67;;;4.50;85.80;;;;;;5032831;28;20202;-87
2022/01/13 08:11:44;;;;;;;43.87;15.70;;;4.20;85.50;;;;;;5032703;28;20452;-87
2022/01/13 08:14:10;;;;;;;38.55;14.52;;;4.10;85.70;;;;;;5033342;28;20451;-87
2022/01/13 08:16:37;;;;;;;49.07;17.27;;;4.10;85.90;;;;;;5032391;28;20193;-87
2022/01/13 08:21:47;;;;;;;47.55;15.85;;;4.40;85.40;;;;;;5044205;28;20196;-87
2022/01/13 08:24:13;;;;;;;44.73;16.00;;;4.20;85.20;;;;;;5051513;28;20173;-86
2022/01/13 08:26:39;;;;;;;43.00;16.17;;;4.30;85.40;;;;;;5051472;28;20829;-87
2022/01/13 08:29:04;;;;;;;49.43;15.60;;;4.50;85.40;;;;;;5051728;28;20713;-86
2022/01/13 08:31:31;;;;;;;45.10;15.63;;;4.60;84.50;;;;;;5052506;28;20416;-86
2022/01/13 08:33:56;;;;;;;46.05;16.00;;;4.70;83.80;;;;;;5051850;28;20641;-87
2022/01/13 08:36:22;;;;;;;52.63;16.10;;;4.70;83.40;;;;;;5058668;28;20207;-88
2022/01/13 08:38:49;;;;;;;48.13;19.30;;;4.50;83.30;;;;;;5060105;28;20611;-88
2022/01/13 08:41:15;;;;;;;43.38;15.30;;;4.20;83.80;;;;;;5052383;28;20962;-88
2022/01/13 08:43:41;;;;;;;40.13;14.10;;;4.20;84.50;;;;;;5053566;28;20551;-87
2022/01/13 08:46:07;;;;;;;41.00;15.10;;;4.00;84.90;;;;;;5052763;28;20493;-87
2022/01/13 08:48:34;;;;;;;38.37;15.00;;;3.90;85.50;;;;;;5052530;28;20199;-87
2022/01/13 08:51:01;;;;;;;38.92;14.95;;;4.00;85.80;;;;;;5054590;28;20462;-88
2022/01/13 08:53:26;;;;;;;43.08;15.25;;;4.30;86.10;;;;;;5054938;28;20560;-87
2022/01/13 08:55:54;;;;;;;42.50;14.83;;;4.10;86.00;;;;;;5056490;28;20191;-88
2022/01/13 08:58:23;;;;;;;47.15;16.90;;;4.30;86.20;;;;;;5056762;28;20416;-87
2022/01/13 09:00:51;;;;;;;43.03;16.13;;;4.40;86.10;;;;;;5057165;28;20185;-88
2022/01/13 09:03:17;;;;;;;48.13;16.15;;;4.40;85.90;;;;;;5054970;28;20187;-88
2022/01/13 09:05:44;;;;;;;47.57;17.20;;;4.50;86.70;;;;;;5052654;28;20298;-88
2022/01/13 09:08:11;;;;;;;40.92;15.48;;;4.40;85.80;;;;;;5052983;28;20501;-88
2022/01/13 09:10:39;;;;;;;41.03;16.30;;;4.70;85.90;;;;;;5052948;28;20208;-88
2022/01/13 09:13:06;;;;;;;38.28;14.60;;;4.90;85.10;;;;;;5053789;28;20178;-88
2022/01/13 09:15:38;;;;;;;53.70;14.00;;;4.90;84.50;;;;;;5054935;28;20200;-87
2022/01/13 09:18:16;;;;;;;37.33;13.07;;;4.80;84.40;;;;;;5056344;28;20177;-87
2022/01/13 09:20:42;;;;;;;46.35;16.73;;;5.10;84.20;;;;;;5059268;28;20181;-88
2022/01/13 09:23:09;;;;;;;44.72;18.08;;;5.10;83.70;;;;;;5057826;28;20185;-88
2022/01/13 09:25:35;;;;;;;48.65;16.50;;;5.20;83.00;;;;;;5070972;28;20185;-88
2022/01/13 09:28:04;;;;;;;45.92;18.42;;;5.00;82.30;;;;;;5061663;28;20205;-88
2022/01/13 09:30:30;;;;;;;44.97;16.60;;;4.80;82.50;;;;;;5056450;28;20209;-88
2022/01/13 09:32:56;;;;;;;44.03;16.13;;;4.70;83.00;;;;;;5059367;28;20205;-88
2022/01/13 09:35:22;;;;;;;45.10;17.57;;;4.80;83.20;;;;;;5061503;28;20208;-88
2022/01/13 09:37:48;;;;;;;49.63;16.88;;;4.90;83.50;;;;;;5068985;28;20450;-88
2022/01/13 09:40:15;;;;;;;43.93;15.60;;;4.80;83.60;;;;;;5071879;28;20181;-88
2022/01/13 09:42:42;;;;;;;48.88;15.20;;;4.80;83.60;;;;;;5056796;28;20438;-88
2022/01/13 09:45:11;;;;;;;46.28;16.67;;;4.50;83.60;;;;;;5055734;28;20192;-88
2022/01/13 09:47:38;;;;;;;53.47;17.15;;;4.30;84.40;;;;;;5060158;28;20726;-88
2022/01/13 09:50:10;;;;;;;52.13;17.45;;;4.30;85.10;;;;;;5061173;28;20571;-88
2022/01/13 09:52:37;;;;;;;43.97;16.75;;;4.30;85.50;;;;;;5055210;28;20174;-88
2022/01/13 09:55:04;;;;;;;53.35;17.20;;;4.20;85.80;;;;;;5055554;28;20188;-88
2022/01/13 09:57:30;;;;;;;57.83;15.65;;;4.30;86.20;;;;;;5056490;28;20708;-87
2022/01/13 09:59:58;;;;;;;49.20;17.30;;;4.40;86.30;;;;;;5066200;28;20181;-88
2022/01/13 10:02:24;;;;;;;49.40;17.77;;;4.40;86.20;;;;;;5066641;28;20188;-88
2022/01/13 10:04:54;;;;;;;53.70;18.13;;;4.40;86.10;;;;;;5061698;28;20535;-86
2022/01/13 10:07:34;;;;;;;63.40;17.52;;;4.40;86.10;;;;;;5055732;28;20251;-88
2022/01/13 10:10:08;;;;;;;52.80;17.63;;;4.50;86.20;;;;;;5056375;28;20197;-88
2022/01/13 10:12:37;;;;;;;51.65;19.20;;;4.60;86.00;;;;;;5055468;28;20169;-88
2022/01/13 10:17:59;;;;;;;82.95;21.63;;;4.70;85.40;;;;;;5057691;28;20176;-87
2022/01/13 10:20:26;;;;;;;76.90;20.60;;;4.80;85.10;;;;;;5060687;28;20565;-87
2022/01/13 10:22:53;;;;;;;57.38;19.25;;;4.70;85.30;;;;;;5062556;28;20185;-88
2022/01/13 10:25:30;;;;;;;69.85;20.30;;;4.60;85.60;;;;;;5064773;28;20192;-87
2022/01/13 10:28:09;;;;;;;64.50;19.15;;;4.70;86.00;;;;;;5062173;28;20239;-87
2022/01/13 10:30:36;;;;;;;58.15;21.67;;;4.80;86.00;;;;;;5059369;28;20232;-88
2022/01/13 10:33:20;;;;;;;74.78;21.67;;;5.10;86.10;;;;;;5057558;28;20177;-88
2022/01/13 10:35:47;;;;;;;48.78;18.92;;;5.50;85.60;;;;;;5057673;28;20177;-88
2022/01/13 10:38:16;;;;;;;58.70;19.98;;;5.80;84.20;;;;;;5055846;28;20173;-87
2022/01/13 10:40:49;;;;;;;66.18;21.48;;;5.80;83.00;;;;;;5054455;28;20181;-88
2022/01/13 10:43:20;;;;;;;48.70;18.48;;;5.70;82.20;;;;;;5054421;28;20205;-87
2022/01/13 10:45:55;;;;;;;56.28;20.23;;;5.50;82.20;;;;;;5054354;28;20624;-87
2022/01/13 10:48:22;;;;;;;60.40;19.40;;;5.30;82.60;;;;;;5054662;28;20185;-87
2022/01/13 10:51:04;;;;;;;56.00;18.88;;;5.40;82.90;;;;;;5054416;28;20239;-87
2022/01/13 10:53:39;;;;;;;56.80;19.15;;;5.30;83.30;;;;;;5054542;28;20184;-88
2022/01/13 10:56:10;;;;;;;58.40;19.38;;;5.70;83.30;;;;;;5055629;28;20763;-88
2022/01/13 10:58:41;;;;;;;46.72;17.30;;;5.60;82.90;;;;;;5059765;28;20173;-87
2022/01/13 11:01:10;;;;;;;53.95;19.23;;;5.60;82.90;;;;;;5055208;28;20227;-89
2022/01/13 11:03:40;;;;;;;50.70;17.85;;;5.40;83.00;;;;;;5054109;28;20189;-88
2022/01/13 11:06:09;;;;;;;62.88;23.45;;;5.50;83.50;;;;;;5054814;28;20204;-88
2022/01/13 11:08:41;;;;;;;54.00;20.15;;;5.60;83.60;;;;;;5055327;28;20307;-88
2022/01/13 11:11:17;;;;;;;62.92;19.67;;;5.50;83.60;;;;;;5056809;28;20173;-88
2022/01/13 11:13:52;;;;;;;61.25;20.80;;;5.40;83.60;;;;;;5057250;28;20164;-88
2022/01/13 11:16:19;;;;;;;64.30;19.70;;;5.50;83.80;;;;;;5060669;28;20208;-88
2022/01/13 11:18:45;;;;;;;59.08;20.13;;;5.70;83.80;;;;;;5073517;28;20200;-88
2022/01/13 11:21:11;;;;;;;56.67;22.48;;;5.90;83.60;;;;;;5055859;28;20180;-88
2022/01/13 11:23:38;;;;;;;60.20;20.23;;;5.80;83.30;;;;;;5053985;28;20179;-88
2022/01/13 11:26:06;;;;;;;49.47;19.60;;;6.00;83.40;;;;;;5055684;28;20758;-88
2022/01/13 11:28:35;;;;;;;47.72;18.90;;;6.10;83.30;;;;;;5055769;28;20189;-88
2022/01/13 11:31:02;;;;;;;50.90;18.42;;;6.40;82.30;;;;;;5065150;28;20243;-88
2022/01/13 11:33:27;;;;;;;61.03;18.83;;;6.50;81.60;;;;;;5068320;28;20174;-88
2022/01/13 11:35:57;;;;;;;51.00;17.77;;;6.40;81.50;;;;;;5054912;28;20208;-88
2022/01/13 11:38:25;;;;;;;43.92;17.77;;;6.20;81.70;;;;;;5054492;28;20415;-88
2022/01/13 11:40:53;;;;;;;49.42;19.55;;;6.20;81.80;;;;;;5056369;28;20477;-88
2022/01/13 11:43:33;;;;;;;56.88;20.90;;;6.30;82.10;;;;;;5059800;28;20204;-88
2022/01/13 11:46:12;;;;;;;41.58;17.95;;;6.60;81.60;;;;;;5059485;28;20207;-88
2022/01/13 11:48:42;;;;;;;57.72;19.42;;;6.70;80.90;;;;;;5056186;28;20177;-88
2022/01/13 11:51:16;;;;;;;59.20;16.33;;;6.60;80.20;;;;;;5058010;28;20173;-88
2022/01/13 11:53:59;;;;;;;53.78;18.92;;;6.30;80.60;;;;;;5056409;28;20234;-88
2022/01/13 11:56:26;;;;;;;60.35;18.75;;;6.20;81.30;;;;;;5061929;28;20195;-89
2022/01/13 11:58:53;;;;;;;55.03;21.02;;;6.50;81.40;;;;;;5061053;28;20197;-88
2022/01/13 12:01:26;;;;;;;62.10;19.92;;;6.50;80.80;;;;;;5057740;28;20256;-88
2022/01/13 12:04:04;;;;;;;61.10;20.95;;;6.30;80.50;;;;;;5052776;28;20268;-88
2022/01/13 12:06:41;;;;;;;46.25;17.27;;;6.30;81.10;;;;;;5053690;28;20281;-88
2022/01/13 12:09:10;;;;;;;57.88;20.88;;;6.30;81.40;;;;;;5052998;28;20197;-88
2022/01/13 12:11:54;;;;;;;68.85;20.33;;;6.40;81.60;;;;;;5052972;28;20239;-88
2022/01/13 12:14:32;;;;;;;56.33;19.95;;;6.50;81.70;;;;;;5052300;28;20179;-88
2022/01/13 12:17:30;;;;;;;50.40;19.67;;;6.50;81.30;;;;;;5052343;28;20192;-88
2022/01/13 12:20:02;;;;;;;54.15;20.55;;;6.40;81.30;;;;;;5052883;28;20181;-88
2022/01/13 12:22:39;;;;;;;57.55;20.50;;;6.20;81.80;;;;;;5052025;28;20669;-88
2022/01/13 12:25:07;;;;;;;64.50;21.35;;;6.10;82.30;;;;;;5052763;28;20173;-89
2022/01/13 12:27:39;;;;;;;53.05;21.15;;;6.20;82.70;;;;;;5052796;28;20223;-88
2022/01/13 12:30:10;;;;;;;63.70;22.75;;;6.50;82.50;;;;;;5053227;28;20204;-88
2022/01/13 12:32:47;;;;;;;65.18;23.17;;;6.30;82.20;;;;;;5053957;28;20204;-88
2022/01/13 12:35:22;;;;;;;74.25;23.92;;;6.20;82.40;;;;;;5052085;28;20183;-88
2022/01/13 12:38:19;;;;;;;66.97;21.17;;;6.40;82.90;;;;;;5054005;28;20193;-88
2022/01/13 12:40:53;;;;;;;59.00;20.90;;;6.40;83.00;;;;;;5053276;28;20173;-88
2022/01/13 12:46:08;;;;;;;63.05;23.67;;;6.00;83.30;;;;;;5053491;28;20304;-88
2022/01/13 12:48:35;;;;;;;63.95;21.63;;;5.80;84.00;;;;;;5051973;28;20181;-88
2022/01/13 12:51:01;;;;;;;57.88;20.65;;;5.60;84.60;;;;;;5051579;28;20188;-88
2022/01/13 12:53:35;;;;;;;55.75;20.60;;;5.40;85.40;;;;;;5051717;28;20177;-88
2022/01/13 12:56:11;;;;;;;64.13;24.40;;;5.50;86.10;;;;;;5053037;28;20193;-88
2022/01/13 12:58:44;;;;;;;72.18;21.10;;;5.90;86.40;;;;;;5052319;28;20184;-88
2022/01/13 13:01:15;;;;;;;69.82;22.60;;;6.00;86.30;;;;;;5052683;28;20248;-88
2022/01/13 13:03:41;;;;;;;65.18;21.73;;;6.30;86.30;;;;;;5051848;28;20304;-89
2022/01/13 13:06:18;;;;;;;66.60;21.17;;;6.20;85.80;;;;;;5053036;28;20228;-88
2022/01/13 13:08:47;;;;;;;62.70;20.08;;;6.10;85.10;;;;;;5054692;28;20431;-88
2022/01/13 14:51:25;;;;;;;73.22;22.88;;;6.60;87.10;;;;;;686649;22;21785;-95